Weather at Can Tho International Airport

Public forecast

Using degrees Celsius for public forecast. Weather courtesy of forecast.io.

Current aviation weather report (METAR) for Can Tho International Airport

2024/06/20 12:00 (retrieved 26 minutes ago)

VVCT 201200Z VRB02KT 7000 -TSRA SCT015 FEW017CB BKN050 29/27 Q1006 NOSIG

Aviation forecast (TAF) for Can Tho International Airport

2024/06/20 12:00 Ammendment (retrieved 26 minutes ago)

TAF AMD VVCT 201210Z 2012/2112 26006KT 9999 SCT015 SCT050 TEMPO 2012/2016 26015G28KT 3000 TSRA BKN015 FEW017CB BKN050